Terminal Aerodrome Forecast
Issued by NWS

Home | Current Version | Previous Version | Text Only | Print | Product List | Glossary On
Versions: 1 2 3 4 5 6 7 8 9 10 11 12 13 14 15 16 17 18 19 20 21 22 23 24
000
FTUS43 KDLH 192000 AAC
TAFBRD
TAF AMD
KBRD 192057Z 1921/2018 29010G18KT P6SM BKN010 OVC015
     FM192200 30011G19KT P6SM VCSH OVC015
      TEMPO 2004/2007 SCT020
     FM200800 31011G17KT P6SM OVC018
     FM201700 30017G27KT P6SM BKN040=

USA.gov is the U.S. government's official web portal to all federal, state and local government web resources and services.